sensor_id;sensor_type;location;lat;lon;timestamp;P1;durP1;ratioP1;P2;durP2;ratioP2
44130;SDS011;29792;48.726;9.248;2023-08-06T00:00:44;6.30;;;5.70;;
44130;SDS011;29792;48.726;9.248;2023-08-06T00:03:09;5.32;;;4.82;;
44130;SDS011;29792;48.726;9.248;2023-08-06T00:05:34;6.63;;;6.00;;
44130;SDS011;29792;48.726;9.248;2023-08-06T00:08:00;6.28;;;5.68;;
44130;SDS011;29792;48.726;9.248;2023-08-06T00:10:25;8.00;;;5.90;;
44130;SDS011;29792;48.726;9.248;2023-08-06T00:12:50;6.95;;;6.18;;
44130;SDS011;29792;48.726;9.248;2023-08-06T00:15:16;6.55;;;5.38;;
44130;SDS011;29792;48.726;9.248;2023-08-06T00:17:41;6.70;;;5.97;;
44130;SDS011;29792;48.726;9.248;2023-08-06T00:20:06;8.18;;;6.07;;
44130;SDS011;29792;48.726;9.248;2023-08-06T00:22:33;6.70;;;6.13;;
44130;SDS011;29792;48.726;9.248;2023-08-06T00:24:58;9.07;;;6.38;;
44130;SDS011;29792;48.726;9.248;2023-08-06T00:27:24;6.38;;;5.78;;
44130;SDS011;29792;48.726;9.248;2023-08-06T00:29:49;5.60;;;5.10;;
44130;SDS011;29792;48.726;9.248;2023-08-06T00:32:14;5.78;;;5.22;;
44130;SDS011;29792;48.726;9.248;2023-08-06T00:34:40;6.10;;;5.57;;
44130;SDS011;29792;48.726;9.248;2023-08-06T00:37:05;8.30;;;5.68;;
44130;SDS011;29792;48.726;9.248;2023-08-06T00:39:30;10.48;;;5.85;;
44130;SDS011;29792;48.726;9.248;2023-08-06T00:41:56;5.28;;;4.78;;
44130;SDS011;29792;48.726;9.248;2023-08-06T00:44:21;4.85;;;4.35;;
44130;SDS011;29792;48.726;9.248;2023-08-06T00:46:46;6.10;;;4.35;;
44130;SDS011;29792;48.726;9.248;2023-08-06T00:49:12;5.70;;;4.32;;
44130;SDS011;29792;48.726;9.248;2023-08-06T00:51:37;6.80;;;5.63;;
44130;SDS011;29792;48.726;9.248;2023-08-06T00:54:03;4.47;;;4.07;;
44130;SDS011;29792;48.726;9.248;2023-08-06T00:56:28;4.80;;;3.42;;
44130;SDS011;29792;48.726;9.248;2023-08-06T00:58:54;3.30;;;3.00;;
44130;SDS011;29792;48.726;9.248;2023-08-06T01:01:19;3.45;;;3.10;;
44130;SDS011;29792;48.726;9.248;2023-08-06T01:03:45;5.97;;;3.47;;
44130;SDS011;29792;48.726;9.248;2023-08-06T01:06:11;3.40;;;3.10;;
44130;SDS011;29792;48.726;9.248;2023-08-06T01:08:43;3.55;;;2.60;;
44130;SDS011;29792;48.726;9.248;2023-08-06T01:14:16;3.20;;;2.20;;
44130;SDS011;29792;48.726;9.248;2023-08-06T01:16:48;3.22;;;2.88;;
44130;SDS011;29792;48.726;9.248;2023-08-06T01:19:18;2.85;;;2.60;;
44130;SDS011;29792;48.726;9.248;2023-08-06T01:21:44;3.80;;;3.13;;
44130;SDS011;29792;48.726;9.248;2023-08-06T01:24:10;4.30;;;2.60;;
44130;SDS011;29792;48.726;9.248;2023-08-06T01:26:38;3.85;;;3.55;;
44130;SDS011;29792;48.726;9.248;2023-08-06T01:29:09;8.20;;;5.65;;
44130;SDS011;29792;48.726;9.248;2023-08-06T01:31:41;4.03;;;3.60;;
44130;SDS011;29792;48.726;9.248;2023-08-06T01:34:31;4.65;;;4.25;;
44130;SDS011;29792;48.726;9.248;2023-08-06T01:36:57;4.75;;;4.05;;
44130;SDS011;29792;48.726;9.248;2023-08-06T01:39:25;3.97;;;3.58;;
44130;SDS011;29792;48.726;9.248;2023-08-06T01:41:50;3.80;;;3.30;;
44130;SDS011;29792;48.726;9.248;2023-08-06T01:44:15;4.43;;;4.03;;
44130;SDS011;29792;48.726;9.248;2023-08-06T01:46:41;4.47;;;3.42;;
44130;SDS011;29792;48.726;9.248;2023-08-06T01:49:06;5.22;;;4.18;;
44130;SDS011;29792;48.726;9.248;2023-08-06T01:51:32;4.30;;;3.60;;
44130;SDS011;29792;48.726;9.248;2023-08-06T01:53:57;4.07;;;3.60;;
44130;SDS011;29792;48.726;9.248;2023-08-06T01:56:22;4.00;;;3.33;;
44130;SDS011;29792;48.726;9.248;2023-08-06T01:58:48;4.50;;;3.33;;
44130;SDS011;29792;48.726;9.248;2023-08-06T02:01:13;4.82;;;3.38;;
44130;SDS011;29792;48.726;9.248;2023-08-06T02:03:38;3.83;;;3.53;;
44130;SDS011;29792;48.726;9.248;2023-08-06T02:06:04;3.10;;;2.80;;
44130;SDS011;29792;48.726;9.248;2023-08-06T02:08:29;2.63;;;2.42;;
44130;SDS011;29792;48.726;9.248;2023-08-06T02:10:54;3.30;;;2.45;;
44130;SDS011;29792;48.726;9.248;2023-08-06T02:13:20;3.63;;;3.33;;
44130;SDS011;29792;48.726;9.248;2023-08-06T02:15:45;3.65;;;2.47;;
44130;SDS011;29792;48.726;9.248;2023-08-06T02:18:14;2.92;;;2.55;;
44130;SDS011;29792;48.726;9.248;2023-08-06T02:20:42;3.55;;;2.92;;
44130;SDS011;29792;48.726;9.248;2023-08-06T02:23:07;4.60;;;2.60;;
44130;SDS011;29792;48.726;9.248;2023-08-06T02:25:33;2.88;;;2.00;;
44130;SDS011;29792;48.726;9.248;2023-08-06T02:27:59;1.92;;;1.73;;
44130;SDS011;29792;48.726;9.248;2023-08-06T02:30:24;3.17;;;2.47;;
44130;SDS011;29792;48.726;9.248;2023-08-06T02:32:49;3.22;;;1.90;;
44130;SDS011;29792;48.726;9.248;2023-08-06T02:35:14;2.83;;;2.20;;
44130;SDS011;29792;48.726;9.248;2023-08-06T02:37:40;3.03;;;1.65;;
44130;SDS011;29792;48.726;9.248;2023-08-06T02:40:05;2.25;;;2.05;;
44130;SDS011;29792;48.726;9.248;2023-08-06T02:42:31;1.80;;;1.63;;
44130;SDS011;29792;48.726;9.248;2023-08-06T02:44:56;5.38;;;1.85;;
44130;SDS011;29792;48.726;9.248;2023-08-06T02:47:21;3.47;;;1.50;;
44130;SDS011;29792;48.726;9.248;2023-08-06T02:49:47;1.90;;;1.38;;
44130;SDS011;29792;48.726;9.248;2023-08-06T02:52:12;2.22;;;1.90;;
44130;SDS011;29792;48.726;9.248;2023-08-06T02:54:37;1.90;;;1.40;;
44130;SDS011;29792;48.726;9.248;2023-08-06T02:57:03;1.88;;;1.55;;
44130;SDS011;29792;48.726;9.248;2023-08-06T02:59:29;2.47;;;1.65;;
44130;SDS011;29792;48.726;9.248;2023-08-06T03:01:55;1.95;;;1.75;;
44130;SDS011;29792;48.726;9.248;2023-08-06T03:04:20;2.25;;;1.85;;
44130;SDS011;29792;48.726;9.248;2023-08-06T03:06:46;2.00;;;1.55;;
44130;SDS011;29792;48.726;9.248;2023-08-06T03:09:11;2.15;;;1.98;;
44130;SDS011;29792;48.726;9.248;2023-08-06T03:11:36;2.70;;;2.03;;
44130;SDS011;29792;48.726;9.248;2023-08-06T03:14:01;3.42;;;2.08;;
44130;SDS011;29792;48.726;9.248;2023-08-06T03:16:27;2.17;;;1.98;;
44130;SDS011;29792;48.726;9.248;2023-08-06T03:18:52;2.67;;;1.70;;
44130;SDS011;29792;48.726;9.248;2023-08-06T03:21:17;2.35;;;1.58;;
44130;SDS011;29792;48.726;9.248;2023-08-06T03:23:42;2.22;;;1.58;;
44130;SDS011;29792;48.726;9.248;2023-08-06T03:26:08;3.67;;;1.88;;
44130;SDS011;29792;48.726;9.248;2023-08-06T03:28:33;1.83;;;1.30;;
44130;SDS011;29792;48.726;9.248;2023-08-06T03:30:59;2.13;;;1.63;;
44130;SDS011;29792;48.726;9.248;2023-08-06T03:33:27;1.52;;;1.25;;
44130;SDS011;29792;48.726;9.248;2023-08-06T03:35:53;2.50;;;1.33;;
44130;SDS011;29792;48.726;9.248;2023-08-06T03:38:18;3.85;;;1.38;;
44130;SDS011;29792;48.726;9.248;2023-08-06T03:40:43;2.72;;;1.38;;
44130;SDS011;29792;48.726;9.248;2023-08-06T03:43:09;2.33;;;1.23;;
44130;SDS011;29792;48.726;9.248;2023-08-06T03:45:34;3.15;;;1.48;;
44130;SDS011;29792;48.726;9.248;2023-08-06T03:47:59;2.70;;;1.08;;
44130;SDS011;29792;48.726;9.248;2023-08-06T03:50:24;2.83;;;1.20;;
44130;SDS011;29792;48.726;9.248;2023-08-06T03:52:50;4.18;;;1.40;;
44130;SDS011;29792;48.726;9.248;2023-08-06T03:55:15;2.72;;;1.30;;
44130;SDS011;29792;48.726;9.248;2023-08-06T03:57:40;2.70;;;1.60;;
44130;SDS011;29792;48.726;9.248;2023-08-06T04:00:06;2.33;;;1.38;;
44130;SDS011;29792;48.726;9.248;2023-08-06T04:02:32;2.05;;;1.55;;
44130;SDS011;29792;48.726;9.248;2023-08-06T04:04:57;3.58;;;1.60;;
44130;SDS011;29792;48.726;9.248;2023-08-06T04:07:24;4.30;;;1.33;;
44130;SDS011;29792;48.726;9.248;2023-08-06T04:09:52;1.90;;;1.00;;
44130;SDS011;29792;48.726;9.248;2023-08-06T04:12:28;2.78;;;2.25;;
44130;SDS011;29792;48.726;9.248;2023-08-06T04:14:53;2.72;;;1.25;;
44130;SDS011;29792;48.726;9.248;2023-08-06T04:17:20;1.45;;;1.35;;
44130;SDS011;29792;48.726;9.248;2023-08-06T04:19:49;1.50;;;1.20;;
44130;SDS011;29792;48.726;9.248;2023-08-06T04:22:16;1.45;;;1.02;;
44130;SDS011;29792;48.726;9.248;2023-08-06T04:24:41;1.98;;;1.50;;
44130;SDS011;29792;48.726;9.248;2023-08-06T04:27:08;1.00;;;0.88;;
44130;SDS011;29792;48.726;9.248;2023-08-06T04:29:34;3.08;;;1.13;;
44130;SDS011;29792;48.726;9.248;2023-08-06T04:31:59;2.78;;;1.55;;
44130;SDS011;29792;48.726;9.248;2023-08-06T04:34:24;1.85;;;1.00;;
44130;SDS011;29792;48.726;9.248;2023-08-06T04:36:50;1.30;;;0.90;;
44130;SDS011;29792;48.726;9.248;2023-08-06T04:39:15;1.30;;;0.80;;
44130;SDS011;29792;48.726;9.248;2023-08-06T04:41:40;2.08;;;1.55;;
44130;SDS011;29792;48.726;9.248;2023-08-06T04:44:05;1.85;;;1.10;;
44130;SDS011;29792;48.726;9.248;2023-08-06T04:46:31;2.78;;;0.80;;
44130;SDS011;29792;48.726;9.248;2023-08-06T04:48:56;1.40;;;1.27;;
44130;SDS011;29792;48.726;9.248;2023-08-06T04:51:21;2.97;;;1.50;;
44130;SDS011;29792;48.726;9.248;2023-08-06T04:53:46;1.33;;;0.60;;
44130;SDS011;29792;48.726;9.248;2023-08-06T04:56:12;1.20;;;0.68;;
44130;SDS011;29792;48.726;9.248;2023-08-06T04:58:37;0.70;;;0.70;;
44130;SDS011;29792;48.726;9.248;2023-08-06T05:01:02;1.00;;;0.70;;
44130;SDS011;29792;48.726;9.248;2023-08-06T05:03:27;0.98;;;0.80;;
44130;SDS011;29792;48.726;9.248;2023-08-06T05:05:53;1.02;;;0.82;;
44130;SDS011;29792;48.726;9.248;2023-08-06T05:08:18;1.58;;;0.82;;
44130;SDS011;29792;48.726;9.248;2023-08-06T05:10:44;1.83;;;0.70;;
44130;SDS011;29792;48.726;9.248;2023-08-06T05:13:10;0.82;;;0.40;;
44130;SDS011;29792;48.726;9.248;2023-08-06T05:15:35;1.83;;;1.05;;
44130;SDS011;29792;48.726;9.248;2023-08-06T05:18:00;2.53;;;0.73;;
44130;SDS011;29792;48.726;9.248;2023-08-06T05:20:26;2.00;;;1.10;;
44130;SDS011;29792;48.726;9.248;2023-08-06T05:22:51;2.28;;;0.82;;
44130;SDS011;29792;48.726;9.248;2023-08-06T05:25:16;1.95;;;0.60;;
44130;SDS011;29792;48.726;9.248;2023-08-06T05:27:41;1.85;;;0.80;;
44130;SDS011;29792;48.726;9.248;2023-08-06T05:30:07;1.23;;;0.70;;
44130;SDS011;29792;48.726;9.248;2023-08-06T05:32:33;1.25;;;0.50;;
44130;SDS011;29792;48.726;9.248;2023-08-06T05:34:58;2.72;;;1.25;;
44130;SDS011;29792;48.726;9.248;2023-08-06T05:37:23;2.38;;;0.50;;
44130;SDS011;29792;48.726;9.248;2023-08-06T05:39:49;1.40;;;0.60;;
44130;SDS011;29792;48.726;9.248;2023-08-06T05:42:14;3.42;;;1.00;;
44130;SDS011;29792;48.726;9.248;2023-08-06T05:44:39;2.83;;;0.43;;
44130;SDS011;29792;48.726;9.248;2023-08-06T05:47:04;0.52;;;0.40;;
44130;SDS011;29792;48.726;9.248;2023-08-06T05:49:30;2.10;;;0.32;;
44130;SDS011;29792;48.726;9.248;2023-08-06T05:51:55;2.28;;;1.10;;
44130;SDS011;29792;48.726;9.248;2023-08-06T05:54:21;2.35;;;0.30;;
44130;SDS011;29792;48.726;9.248;2023-08-06T05:56:46;0.57;;;0.50;;
44130;SDS011;29792;48.726;9.248;2023-08-06T05:59:11;1.30;;;0.75;;
44130;SDS011;29792;48.726;9.248;2023-08-06T06:01:37;2.05;;;0.20;;
44130;SDS011;29792;48.726;9.248;2023-08-06T06:04:02;2.03;;;0.82;;
44130;SDS011;29792;48.726;9.248;2023-08-06T06:06:28;1.20;;;0.73;;
44130;SDS011;29792;48.726;9.248;2023-08-06T06:08:53;1.80;;;0.32;;
44130;SDS011;29792;48.726;9.248;2023-08-06T06:11:18;1.75;;;0.38;;
44130;SDS011;29792;48.726;9.248;2023-08-06T06:13:46;2.03;;;0.20;;
44130;SDS011;29792;48.726;9.248;2023-08-06T06:16:12;1.65;;;0.75;;
44130;SDS011;29792;48.726;9.248;2023-08-06T06:18:37;2.17;;;0.55;;
44130;SDS011;29792;48.726;9.248;2023-08-06T06:21:02;2.00;;;0.40;;
44130;SDS011;29792;48.726;9.248;2023-08-06T06:23:28;0.47;;;0.10;;
44130;SDS011;29792;48.726;9.248;2023-08-06T06:25:53;2.15;;;0.68;;
44130;SDS011;29792;48.726;9.248;2023-08-06T06:28:18;2.75;;;0.82;;
44130;SDS011;29792;48.726;9.248;2023-08-06T06:30:44;1.30;;;0.45;;
44130;SDS011;29792;48.726;9.248;2023-08-06T06:33:09;0.30;;;0.22;;
44130;SDS011;29792;48.726;9.248;2023-08-06T06:35:35;1.45;;;0.30;;
44130;SDS011;29792;48.726;9.248;2023-08-06T06:38:00;1.00;;;0.45;;
44130;SDS011;29792;48.726;9.248;2023-08-06T06:40:26;2.13;;;0.43;;
44130;SDS011;29792;48.726;9.248;2023-08-06T06:42:51;1.58;;;0.50;;
44130;SDS011;29792;48.726;9.248;2023-08-06T06:45:17;0.32;;;0.17;;
44130;SDS011;29792;48.726;9.248;2023-08-06T06:47:42;1.27;;;0.20;;
44130;SDS011;29792;48.726;9.248;2023-08-06T06:50:07;0.75;;;0.20;;
44130;SDS011;29792;48.726;9.248;2023-08-06T06:52:33;0.55;;;0.10;;
44130;SDS011;29792;48.726;9.248;2023-08-06T06:54:58;0.38;;;0.17;;
44130;SDS011;29792;48.726;9.248;2023-08-06T06:57:23;1.27;;;0.30;;
44130;SDS011;29792;48.726;9.248;2023-08-06T06:59:49;2.15;;;0.52;;
44130;SDS011;29792;48.726;9.248;2023-08-06T07:02:14;8.68;;;4.72;;
44130;SDS011;29792;48.726;9.248;2023-08-06T07:04:39;1.60;;;1.02;;
44130;SDS011;29792;48.726;9.248;2023-08-06T07:07:04;1.02;;;0.20;;
44130;SDS011;29792;48.726;9.248;2023-08-06T07:09:30;1.45;;;0.65;;
44130;SDS011;29792;48.726;9.248;2023-08-06T07:11:55;0.45;;;0.20;;
44130;SDS011;29792;48.726;9.248;2023-08-06T07:14:20;2.58;;;0.20;;
44130;SDS011;29792;48.726;9.248;2023-08-06T07:16:45;1.38;;;0.45;;
44130;SDS011;29792;48.726;9.248;2023-08-06T07:19:11;1.15;;;0.38;;
44130;SDS011;29792;48.726;9.248;2023-08-06T07:21:36;2.40;;;0.30;;
44130;SDS011;29792;48.726;9.248;2023-08-06T07:24:01;0.52;;;0.17;;
44130;SDS011;29792;48.726;9.248;2023-08-06T07:26:27;1.08;;;0.20;;
44130;SDS011;29792;48.726;9.248;2023-08-06T07:28:52;1.00;;;0.20;;
44130;SDS011;29792;48.726;9.248;2023-08-06T07:31:17;0.60;;;0.22;;
44130;SDS011;29792;48.726;9.248;2023-08-06T07:33:43;0.10;;;0.10;;
44130;SDS011;29792;48.726;9.248;2023-08-06T07:36:11;0.52;;;0.30;;
44130;SDS011;29792;48.726;9.248;2023-08-06T07:38:37;0.20;;;0.10;;
44130;SDS011;29792;48.726;9.248;2023-08-06T07:41:03;0.95;;;0.60;;
44130;SDS011;29792;48.726;9.248;2023-08-06T07:43:28;3.75;;;3.15;;
44130;SDS011;29792;48.726;9.248;2023-08-06T07:45:53;0.43;;;0.20;;
44130;SDS011;29792;48.726;9.248;2023-08-06T07:48:19;0.55;;;0.10;;
44130;SDS011;29792;48.726;9.248;2023-08-06T07:50:44;1.45;;;0.08;;
44130;SDS011;29792;48.726;9.248;2023-08-06T07:53:15;0.00;;;0.00;;
44130;SDS011;29792;48.726;9.248;2023-08-06T07:55:40;0.45;;;0.00;;
44130;SDS011;29792;48.726;9.248;2023-08-06T07:58:05;0.25;;;0.25;;
44130;SDS011;29792;48.726;9.248;2023-08-06T08:00:31;0.00;;;0.00;;
44130;SDS011;29792;48.726;9.248;2023-08-06T08:02:56;0.05;;;0.00;;
44130;SDS011;29792;48.726;9.248;2023-08-06T08:05:21;0.10;;;0.00;;
44130;SDS011;29792;48.726;9.248;2023-08-06T08:07:46;2.63;;;2.00;;
44130;SDS011;29792;48.726;9.248;2023-08-06T08:10:12;1.52;;;0.47;;
44130;SDS011;29792;48.726;9.248;2023-08-06T08:12:37;0.08;;;0.00;;
44130;SDS011;29792;48.726;9.248;2023-08-06T08:15:02;0.00;;;0.00;;
44130;SDS011;29792;48.726;9.248;2023-08-06T08:17:28;0.00;;;0.00;;
44130;SDS011;29792;48.726;9.248;2023-08-06T08:19:53;0.00;;;0.00;;
44130;SDS011;29792;48.726;9.248;2023-08-06T08:22:19;0.75;;;0.00;;
44130;SDS011;29792;48.726;9.248;2023-08-06T08:24:44;0.43;;;0.00;;
44130;SDS011;29792;48.726;9.248;2023-08-06T08:27:09;0.10;;;0.00;;
44130;SDS011;29792;48.726;9.248;2023-08-06T08:29:34;0.30;;;0.00;;
44130;SDS011;29792;48.726;9.248;2023-08-06T08:32:00;0.00;;;0.00;;
44130;SDS011;29792;48.726;9.248;2023-08-06T08:34:25;0.00;;;0.00;;
44130;SDS011;29792;48.726;9.248;2023-08-06T08:36:50;0.03;;;0.00;;
44130;SDS011;29792;48.726;9.248;2023-08-06T08:39:15;0.20;;;0.10;;
44130;SDS011;29792;48.726;9.248;2023-08-06T08:41:41;1.23;;;0.00;;
44130;SDS011;29792;48.726;9.248;2023-08-06T08:44:10;0.00;;;0.00;;
44130;SDS011;29792;48.726;9.248;2023-08-06T08:46:36;0.05;;;0.00;;
44130;SDS011;29792;48.726;9.248;2023-08-06T08:49:03;0.10;;;0.00;;
44130;SDS011;29792;48.726;9.248;2023-08-06T08:51:29;0.00;;;0.00;;
44130;SDS011;29792;48.726;9.248;2023-08-06T08:53:56;0.00;;;0.00;;
44130;SDS011;29792;48.726;9.248;2023-08-06T08:56:22;0.40;;;0.00;;
44130;SDS011;29792;48.726;9.248;2023-08-06T08:58:48;0.20;;;0.00;;
44130;SDS011;29792;48.726;9.248;2023-08-06T09:01:14;0.10;;;0.00;;
44130;SDS011;29792;48.726;9.248;2023-08-06T09:03:40;0.10;;;0.00;;
44130;SDS011;29792;48.726;9.248;2023-08-06T09:06:06;0.30;;;0.00;;
44130;SDS011;29792;48.726;9.248;2023-08-06T09:08:36;0.00;;;0.00;;
44130;SDS011;29792;48.726;9.248;2023-08-06T09:11:04;0.00;;;0.00;;
44130;SDS011;29792;48.726;9.248;2023-08-06T09:13:30;0.32;;;0.10;;
44130;SDS011;29792;48.726;9.248;2023-08-06T09:15:55;0.17;;;0.00;;
44130;SDS011;29792;48.726;9.248;2023-08-06T09:18:26;0.10;;;0.00;;
44130;SDS011;29792;48.726;9.248;2023-08-06T09:20:52;3.17;;;2.47;;
44130;SDS011;29792;48.726;9.248;2023-08-06T09:23:18;1.15;;;0.95;;
44130;SDS011;29792;48.726;9.248;2023-08-06T09:25:45;0.20;;;0.00;;
44130;SDS011;29792;48.726;9.248;2023-08-06T09:28:10;0.00;;;0.00;;
44130;SDS011;29792;48.726;9.248;2023-08-06T09:30:36;0.00;;;0.00;;
44130;SDS011;29792;48.726;9.248;2023-08-06T09:33:02;0.00;;;0.00;;
44130;SDS011;29792;48.726;9.248;2023-08-06T09:35:29;0.30;;;0.10;;
44130;SDS011;29792;48.726;9.248;2023-08-06T09:37:55;1.17;;;0.00;;
44130;SDS011;29792;48.726;9.248;2023-08-06T09:40:24;0.00;;;0.00;;
44130;SDS011;29792;48.726;9.248;2023-08-06T09:42:50;0.00;;;0.00;;
44130;SDS011;29792;48.726;9.248;2023-08-06T09:45:16;0.00;;;0.00;;
44130;SDS011;29792;48.726;9.248;2023-08-06T09:47:41;0.00;;;0.00;;
44130;SDS011;29792;48.726;9.248;2023-08-06T09:50:14;0.00;;;0.00;;
44130;SDS011;29792;48.726;9.248;2023-08-06T09:52:48;0.00;;;0.00;;
44130;SDS011;29792;48.726;9.248;2023-08-06T09:55:16;2.75;;;2.13;;
44130;SDS011;29792;48.726;9.248;2023-08-06T09:57:43;0.30;;;0.10;;
44130;SDS011;29792;48.726;9.248;2023-08-06T10:00:08;0.08;;;0.00;;
44130;SDS011;29792;48.726;9.248;2023-08-06T10:02:37;0.00;;;0.00;;
44130;SDS011;29792;48.726;9.248;2023-08-06T10:05:04;0.25;;;0.00;;
44130;SDS011;29792;48.726;9.248;2023-08-06T10:07:30;0.93;;;0.00;;
44130;SDS011;29792;48.726;9.248;2023-08-06T10:09:55;0.00;;;0.00;;
44130;SDS011;29792;48.726;9.248;2023-08-06T10:12:21;0.10;;;0.10;;
44130;SDS011;29792;48.726;9.248;2023-08-06T10:14:47;0.10;;;0.00;;
44130;SDS011;29792;48.726;9.248;2023-08-06T10:17:14;0.00;;;0.00;;
44130;SDS011;29792;48.726;9.248;2023-08-06T10:19:40;0.00;;;0.00;;
44130;SDS011;29792;48.726;9.248;2023-08-06T10:24:51;0.65;;;0.00;;
44130;SDS011;29792;48.726;9.248;2023-08-06T10:27:22;0.10;;;0.10;;
44130;SDS011;29792;48.726;9.248;2023-08-06T10:29:56;0.10;;;0.10;;
44130;SDS011;29792;48.726;9.248;2023-08-06T10:38:04;0.80;;;0.20;;
44130;SDS011;29792;48.726;9.248;2023-08-06T10:40:31;0.03;;;0.00;;
44130;SDS011;29792;48.726;9.248;2023-08-06T10:43:01;0.20;;;0.10;;
44130;SDS011;29792;48.726;9.248;2023-08-06T10:45:27;0.15;;;0.00;;
44130;SDS011;29792;48.726;9.248;2023-08-06T10:47:56;0.10;;;0.00;;
44130;SDS011;29792;48.726;9.248;2023-08-06T10:50:22;0.35;;;0.30;;
44130;SDS011;29792;48.726;9.248;2023-08-06T10:52:48;0.60;;;0.00;;
44130;SDS011;29792;48.726;9.248;2023-08-06T10:55:23;0.20;;;0.00;;
44130;SDS011;29792;48.726;9.248;2023-08-06T10:57:54;0.10;;;0.10;;
44130;SDS011;29792;48.726;9.248;2023-08-06T11:00:20;0.17;;;0.00;;
44130;SDS011;29792;48.726;9.248;2023-08-06T11:02:49;0.32;;;0.32;;
44130;SDS011;29792;48.726;9.248;2023-08-06T11:05:15;0.30;;;0.00;;
44130;SDS011;29792;48.726;9.248;2023-08-06T11:07:40;0.00;;;0.00;;
44130;SDS011;29792;48.726;9.248;2023-08-06T11:10:07;0.00;;;0.00;;
44130;SDS011;29792;48.726;9.248;2023-08-06T11:12:34;0.00;;;0.00;;
44130;SDS011;29792;48.726;9.248;2023-08-06T11:15:00;1.17;;;0.20;;
44130;SDS011;29792;48.726;9.248;2023-08-06T11:17:29;0.65;;;0.20;;
44130;SDS011;29792;48.726;9.248;2023-08-06T11:19:55;0.20;;;0.00;;
44130;SDS011;29792;48.726;9.248;2023-08-06T11:22:21;0.77;;;0.10;;
44130;SDS011;29792;48.726;9.248;2023-08-06T11:24:47;0.00;;;0.00;;
44130;SDS011;29792;48.726;9.248;2023-08-06T11:27:14;1.10;;;0.03;;
44130;SDS011;29792;48.726;9.248;2023-08-06T11:29:40;0.55;;;0.00;;
44130;SDS011;29792;48.726;9.248;2023-08-06T11:32:06;0.55;;;0.32;;
44130;SDS011;29792;48.726;9.248;2023-08-06T11:34:32;0.03;;;0.00;;
44130;SDS011;29792;48.726;9.248;2023-08-06T11:36:58;0.03;;;0.03;;
44130;SDS011;29792;48.726;9.248;2023-08-06T11:39:23;0.20;;;0.10;;
44130;SDS011;29792;48.726;9.248;2023-08-06T11:41:49;0.63;;;0.10;;
44130;SDS011;29792;48.726;9.248;2023-08-06T11:44:14;0.60;;;0.30;;
44130;SDS011;29792;48.726;9.248;2023-08-06T11:46:52;0.10;;;0.10;;
44130;SDS011;29792;48.726;9.248;2023-08-06T11:49:21;1.23;;;0.60;;
44130;SDS011;29792;48.726;9.248;2023-08-06T11:54:36;0.30;;;0.20;;
44130;SDS011;29792;48.726;9.248;2023-08-06T11:57:02;0.43;;;0.20;;
44130;SDS011;29792;48.726;9.248;2023-08-06T11:59:28;0.22;;;0.17;;
44130;SDS011;29792;48.726;9.248;2023-08-06T12:01:53;0.20;;;0.15;;
44130;SDS011;29792;48.726;9.248;2023-08-06T12:04:19;0.43;;;0.13;;
44130;SDS011;29792;48.726;9.248;2023-08-06T12:06:44;0.05;;;0.05;;
44130;SDS011;29792;48.726;9.248;2023-08-06T12:09:09;1.35;;;0.30;;
44130;SDS011;29792;48.726;9.248;2023-08-06T12:11:35;1.45;;;0.63;;
44130;SDS011;29792;48.726;9.248;2023-08-06T12:14:00;1.33;;;0.50;;
44130;SDS011;29792;48.726;9.248;2023-08-06T12:16:27;0.57;;;0.20;;
44130;SDS011;29792;48.726;9.248;2023-08-06T12:18:53;0.52;;;0.50;;
44130;SDS011;29792;48.726;9.248;2023-08-06T12:21:18;1.42;;;0.57;;
44130;SDS011;29792;48.726;9.248;2023-08-06T12:23:43;1.65;;;0.30;;
44130;SDS011;29792;48.726;9.248;2023-08-06T12:26:09;0.10;;;0.10;;
44130;SDS011;29792;48.726;9.248;2023-08-06T12:28:34;2.05;;;0.45;;
44130;SDS011;29792;48.726;9.248;2023-08-06T12:30:59;0.70;;;0.38;;
44130;SDS011;29792;48.726;9.248;2023-08-06T12:33:24;1.73;;;0.52;;
44130;SDS011;29792;48.726;9.248;2023-08-06T12:35:50;0.45;;;0.30;;
44130;SDS011;29792;48.726;9.248;2023-08-06T12:38:15;0.98;;;0.40;;
44130;SDS011;29792;48.726;9.248;2023-08-06T12:40:40;0.65;;;0.50;;
44130;SDS011;29792;48.726;9.248;2023-08-06T12:43:06;0.57;;;0.40;;
44130;SDS011;29792;48.726;9.248;2023-08-06T12:45:31;0.30;;;0.15;;
44130;SDS011;29792;48.726;9.248;2023-08-06T12:47:56;0.50;;;0.30;;
44130;SDS011;29792;48.726;9.248;2023-08-06T12:50:21;1.10;;;0.30;;
44130;SDS011;29792;48.726;9.248;2023-08-06T12:52:47;0.55;;;0.40;;
44130;SDS011;29792;48.726;9.248;2023-08-06T12:55:12;0.55;;;0.20;;
44130;SDS011;29792;48.726;9.248;2023-08-06T12:57:37;0.20;;;0.10;;
44130;SDS011;29792;48.726;9.248;2023-08-06T13:00:02;0.25;;;0.25;;
44130;SDS011;29792;48.726;9.248;2023-08-06T13:02:28;0.30;;;0.30;;
44130;SDS011;29792;48.726;9.248;2023-08-06T13:04:55;0.93;;;0.68;;
44130;SDS011;29792;48.726;9.248;2023-08-06T13:07:20;0.10;;;0.10;;
44130;SDS011;29792;48.726;9.248;2023-08-06T13:09:45;0.15;;;0.15;;
44130;SDS011;29792;48.726;9.248;2023-08-06T13:12:10;2.17;;;0.95;;
44130;SDS011;29792;48.726;9.248;2023-08-06T13:14:36;2.28;;;0.40;;
44130;SDS011;29792;48.726;9.248;2023-08-06T13:17:01;0.32;;;0.22;;
44130;SDS011;29792;48.726;9.248;2023-08-06T13:19:27;0.70;;;0.25;;
44130;SDS011;29792;48.726;9.248;2023-08-06T13:21:59;1.80;;;0.30;;
44130;SDS011;29792;48.726;9.248;2023-08-06T13:24:27;0.57;;;0.30;;
44130;SDS011;29792;48.726;9.248;2023-08-06T13:26:52;2.28;;;0.50;;
44130;SDS011;29792;48.726;9.248;2023-08-06T13:29:18;0.55;;;0.40;;
44130;SDS011;29792;48.726;9.248;2023-08-06T13:31:43;1.30;;;0.50;;
44130;SDS011;29792;48.726;9.248;2023-08-06T13:34:08;0.93;;;0.82;;
44130;SDS011;29792;48.726;9.248;2023-08-06T13:36:34;1.55;;;0.30;;
44130;SDS011;29792;48.726;9.248;2023-08-06T13:38:59;1.30;;;0.40;;
44130;SDS011;29792;48.726;9.248;2023-08-06T13:41:24;0.82;;;0.22;;
44130;SDS011;29792;48.726;9.248;2023-08-06T13:43:50;0.30;;;0.20;;
44130;SDS011;29792;48.726;9.248;2023-08-06T13:46:15;0.90;;;0.43;;
44130;SDS011;29792;48.726;9.248;2023-08-06T13:48:43;1.65;;;0.32;;
44130;SDS011;29792;48.726;9.248;2023-08-06T13:51:10;0.47;;;0.20;;
44130;SDS011;29792;48.726;9.248;2023-08-06T13:53:36;0.65;;;0.35;;
44130;SDS011;29792;48.726;9.248;2023-08-06T13:56:01;0.60;;;0.13;;
44130;SDS011;29792;48.726;9.248;2023-08-06T13:58:28;0.45;;;0.45;;
44130;SDS011;29792;48.726;9.248;2023-08-06T14:00:53;0.17;;;0.10;;
44130;SDS011;29792;48.726;9.248;2023-08-06T14:03:19;0.40;;;0.15;;
44130;SDS011;29792;48.726;9.248;2023-08-06T14:05:45;0.15;;;0.15;;
44130;SDS011;29792;48.726;9.248;2023-08-06T14:08:10;1.08;;;0.65;;
44130;SDS011;29792;48.726;9.248;2023-08-06T14:10:35;0.55;;;0.30;;
44130;SDS011;29792;48.726;9.248;2023-08-06T14:13:00;0.10;;;0.10;;
44130;SDS011;29792;48.726;9.248;2023-08-06T14:15:26;0.73;;;0.20;;
44130;SDS011;29792;48.726;9.248;2023-08-06T14:17:51;0.20;;;0.20;;
44130;SDS011;29792;48.726;9.248;2023-08-06T14:20:17;0.20;;;0.20;;
44130;SDS011;29792;48.726;9.248;2023-08-06T14:22:42;1.45;;;0.20;;
44130;SDS011;29792;48.726;9.248;2023-08-06T14:25:07;0.65;;;0.43;;
44130;SDS011;29792;48.726;9.248;2023-08-06T14:27:33;0.22;;;0.20;;
44130;SDS011;29792;48.726;9.248;2023-08-06T14:29:58;0.82;;;0.47;;
44130;SDS011;29792;48.726;9.248;2023-08-06T14:32:23;0.47;;;0.38;;
44130;SDS011;29792;48.726;9.248;2023-08-06T14:34:49;1.45;;;0.30;;
44130;SDS011;29792;48.726;9.248;2023-08-06T14:37:14;1.35;;;0.63;;
44130;SDS011;29792;48.726;9.248;2023-08-06T14:39:39;0.10;;;0.10;;
44130;SDS011;29792;48.726;9.248;2023-08-06T14:42:05;0.20;;;0.20;;
44130;SDS011;29792;48.726;9.248;2023-08-06T14:44:30;2.00;;;0.10;;
44130;SDS011;29792;48.726;9.248;2023-08-06T14:46:56;0.63;;;0.20;;
44130;SDS011;29792;48.726;9.248;2023-08-06T14:49:21;0.38;;;0.20;;
44130;SDS011;29792;48.726;9.248;2023-08-06T14:51:47;0.10;;;0.10;;
44130;SDS011;29792;48.726;9.248;2023-08-06T14:54:12;0.20;;;0.10;;